sensor_id;sensor_type;location;lat;lon;timestamp;P1;durP1;ratioP1;P2;durP2;ratioP2
24685;SDS011;12804;51.176;4.452;2022-08-01T00:00:24;9.65;;;5.82;;
24685;SDS011;12804;51.176;4.452;2022-08-01T00:02:50;11.82;;;5.50;;
24685;SDS011;12804;51.176;4.452;2022-08-01T00:05:16;6.55;;;4.65;;
24685;SDS011;12804;51.176;4.452;2022-08-01T00:07:42;8.57;;;5.00;;
24685;SDS011;12804;51.176;4.452;2022-08-01T00:10:09;7.32;;;5.32;;
24685;SDS011;12804;51.176;4.452;2022-08-01T00:12:36;10.65;;;5.38;;
24685;SDS011;12804;51.176;4.452;2022-08-01T00:15:03;7.10;;;5.10;;
24685;SDS011;12804;51.176;4.452;2022-08-01T00:17:32;10.15;;;5.75;;
24685;SDS011;12804;51.176;4.452;2022-08-01T00:19:58;8.88;;;5.45;;
24685;SDS011;12804;51.176;4.452;2022-08-01T00:22:24;8.63;;;5.57;;
24685;SDS011;12804;51.176;4.452;2022-08-01T00:24:50;7.68;;;5.57;;
24685;SDS011;12804;51.176;4.452;2022-08-01T00:27:16;13.20;;;6.60;;
24685;SDS011;12804;51.176;4.452;2022-08-01T00:29:42;11.68;;;6.70;;
24685;SDS011;12804;51.176;4.452;2022-08-01T00:32:07;12.45;;;7.07;;
24685;SDS011;12804;51.176;4.452;2022-08-01T00:34:33;13.77;;;9.07;;
24685;SDS011;12804;51.176;4.452;2022-08-01T00:36:59;16.85;;;8.23;;
24685;SDS011;12804;51.176;4.452;2022-08-01T00:39:25;12.55;;;8.07;;
24685;SDS011;12804;51.176;4.452;2022-08-01T00:41:50;13.57;;;8.00;;
24685;SDS011;12804;51.176;4.452;2022-08-01T00:44:16;13.07;;;8.20;;
24685;SDS011;12804;51.176;4.452;2022-08-01T00:46:42;15.20;;;9.40;;
24685;SDS011;12804;51.176;4.452;2022-08-01T00:49:08;13.07;;;8.85;;
24685;SDS011;12804;51.176;4.452;2022-08-01T00:51:34;13.73;;;7.95;;
24685;SDS011;12804;51.176;4.452;2022-08-01T00:54:00;11.63;;;9.02;;
24685;SDS011;12804;51.176;4.452;2022-08-01T00:56:26;16.73;;;9.45;;
24685;SDS011;12804;51.176;4.452;2022-08-01T00:58:54;14.15;;;9.15;;
24685;SDS011;12804;51.176;4.452;2022-08-01T01:01:21;13.95;;;9.20;;
24685;SDS011;12804;51.176;4.452;2022-08-01T01:03:48;16.77;;;9.20;;
24685;SDS011;12804;51.176;4.452;2022-08-01T01:06:19;16.17;;;8.75;;
24685;SDS011;12804;51.176;4.452;2022-08-01T01:14:23;15.40;;;7.60;;
24685;SDS011;12804;51.176;4.452;2022-08-01T01:16:58;13.20;;;8.73;;
24685;SDS011;12804;51.176;4.452;2022-08-01T01:19:28;16.88;;;10.50;;
24685;SDS011;12804;51.176;4.452;2022-08-01T01:24:52;31.42;;;18.02;;
24685;SDS011;12804;51.176;4.452;2022-08-01T01:27:38;36.55;;;22.88;;
24685;SDS011;12804;51.176;4.452;2022-08-01T01:30:10;35.70;;;21.42;;
24685;SDS011;12804;51.176;4.452;2022-08-01T01:32:40;39.30;;;24.33;;
24685;SDS011;12804;51.176;4.452;2022-08-01T01:35:09;40.72;;;28.00;;
24685;SDS011;12804;51.176;4.452;2022-08-01T01:37:40;37.60;;;27.08;;
24685;SDS011;12804;51.176;4.452;2022-08-01T01:40:09;43.80;;;28.35;;
24685;SDS011;12804;51.176;4.452;2022-08-01T01:42:35;35.70;;;23.02;;
24685;SDS011;12804;51.176;4.452;2022-08-01T01:45:03;33.28;;;21.60;;
24685;SDS011;12804;51.176;4.452;2022-08-01T01:47:30;26.55;;;19.20;;
24685;SDS011;12804;51.176;4.452;2022-08-01T01:49:57;26.67;;;18.17;;
24685;SDS011;12804;51.176;4.452;2022-08-01T01:52:25;30.17;;;20.48;;
24685;SDS011;12804;51.176;4.452;2022-08-01T01:54:52;29.63;;;19.70;;
24685;SDS011;12804;51.176;4.452;2022-08-01T01:57:21;29.00;;;19.83;;
24685;SDS011;12804;51.176;4.452;2022-08-01T01:59:47;26.33;;;19.80;;
24685;SDS011;12804;51.176;4.452;2022-08-01T02:02:16;30.52;;;19.73;;
24685;SDS011;12804;51.176;4.452;2022-08-01T02:04:44;26.80;;;19.88;;
24685;SDS011;12804;51.176;4.452;2022-08-01T02:07:12;25.45;;;20.02;;
24685;SDS011;12804;51.176;4.452;2022-08-01T02:09:42;28.88;;;19.35;;
24685;SDS011;12804;51.176;4.452;2022-08-01T02:12:12;31.92;;;20.00;;
24685;SDS011;12804;51.176;4.452;2022-08-01T02:14:39;33.20;;;20.08;;
24685;SDS011;12804;51.176;4.452;2022-08-01T02:17:08;29.50;;;18.90;;
24685;SDS011;12804;51.176;4.452;2022-08-01T02:19:37;32.55;;;19.10;;
24685;SDS011;12804;51.176;4.452;2022-08-01T02:22:11;28.33;;;19.55;;
24685;SDS011;12804;51.176;4.452;2022-08-01T02:25:15;30.45;;;18.10;;
24685;SDS011;12804;51.176;4.452;2022-08-01T02:27:48;24.85;;;15.52;;
24685;SDS011;12804;51.176;4.452;2022-08-01T02:30:16;24.90;;;14.95;;
24685;SDS011;12804;51.176;4.452;2022-08-01T02:32:44;22.45;;;13.25;;
24685;SDS011;12804;51.176;4.452;2022-08-01T02:35:20;22.15;;;11.85;;
24685;SDS011;12804;51.176;4.452;2022-08-01T02:37:52;20.90;;;12.00;;
24685;SDS011;12804;51.176;4.452;2022-08-01T02:40:21;22.30;;;11.52;;
24685;SDS011;12804;51.176;4.452;2022-08-01T02:42:49;24.45;;;11.77;;
24685;SDS011;12804;51.176;4.452;2022-08-01T02:45:20;20.00;;;11.02;;
24685;SDS011;12804;51.176;4.452;2022-08-01T02:47:50;20.90;;;10.05;;
24685;SDS011;12804;51.176;4.452;2022-08-01T02:50:19;24.38;;;10.20;;
24685;SDS011;12804;51.176;4.452;2022-08-01T02:52:48;17.80;;;10.30;;
24685;SDS011;12804;51.176;4.452;2022-08-01T02:55:16;18.70;;;9.27;;
24685;SDS011;12804;51.176;4.452;2022-08-01T02:57:44;14.23;;;9.10;;
24685;SDS011;12804;51.176;4.452;2022-08-01T03:00:12;19.40;;;8.60;;
24685;SDS011;12804;51.176;4.452;2022-08-01T03:02:40;15.55;;;8.75;;
24685;SDS011;12804;51.176;4.452;2022-08-01T03:05:08;13.38;;;7.88;;
24685;SDS011;12804;51.176;4.452;2022-08-01T03:07:37;13.40;;;8.13;;
24685;SDS011;12804;51.176;4.452;2022-08-01T03:10:04;13.20;;;7.82;;
24685;SDS011;12804;51.176;4.452;2022-08-01T03:12:31;17.10;;;8.77;;
24685;SDS011;12804;51.176;4.452;2022-08-01T03:15:00;12.05;;;7.57;;
24685;SDS011;12804;51.176;4.452;2022-08-01T03:17:28;12.82;;;8.75;;
24685;SDS011;12804;51.176;4.452;2022-08-01T03:19:58;17.75;;;9.45;;
24685;SDS011;12804;51.176;4.452;2022-08-01T03:22:27;12.98;;;7.60;;
24685;SDS011;12804;51.176;4.452;2022-08-01T03:24:56;11.02;;;7.78;;
24685;SDS011;12804;51.176;4.452;2022-08-01T03:27:24;12.18;;;7.30;;
24685;SDS011;12804;51.176;4.452;2022-08-01T03:29:51;14.45;;;7.40;;
24685;SDS011;12804;51.176;4.452;2022-08-01T03:32:19;11.32;;;7.43;;
24685;SDS011;12804;51.176;4.452;2022-08-01T03:34:47;11.55;;;6.53;;
24685;SDS011;12804;51.176;4.452;2022-08-01T03:37:26;11.13;;;7.05;;
24685;SDS011;12804;51.176;4.452;2022-08-01T03:40:07;11.35;;;6.45;;
24685;SDS011;12804;51.176;4.452;2022-08-01T03:42:44;8.85;;;6.28;;
24685;SDS011;12804;51.176;4.452;2022-08-01T03:45:15;11.13;;;6.07;;
24685;SDS011;12804;51.176;4.452;2022-08-01T03:47:49;9.98;;;6.22;;
24685;SDS011;12804;51.176;4.452;2022-08-01T03:50:18;10.15;;;6.13;;
24685;SDS011;12804;51.176;4.452;2022-08-01T03:52:46;12.00;;;6.53;;
24685;SDS011;12804;51.176;4.452;2022-08-01T03:55:13;9.07;;;6.13;;
24685;SDS011;12804;51.176;4.452;2022-08-01T03:57:42;8.43;;;5.68;;
24685;SDS011;12804;51.176;4.452;2022-08-01T04:00:09;9.18;;;5.72;;
24685;SDS011;12804;51.176;4.452;2022-08-01T04:02:39;10.77;;;5.68;;
24685;SDS011;12804;51.176;4.452;2022-08-01T04:05:05;7.80;;;5.40;;
24685;SDS011;12804;51.176;4.452;2022-08-01T04:07:32;8.48;;;5.32;;
24685;SDS011;12804;51.176;4.452;2022-08-01T04:10:02;7.32;;;5.22;;
24685;SDS011;12804;51.176;4.452;2022-08-01T04:12:29;7.20;;;5.30;;
24685;SDS011;12804;51.176;4.452;2022-08-01T04:14:54;7.13;;;5.30;;
24685;SDS011;12804;51.176;4.452;2022-08-01T04:17:20;12.13;;;6.10;;
24685;SDS011;12804;51.176;4.452;2022-08-01T04:19:46;8.88;;;6.03;;
24685;SDS011;12804;51.176;4.452;2022-08-01T04:22:13;7.20;;;4.97;;
24685;SDS011;12804;51.176;4.452;2022-08-01T04:24:42;8.88;;;5.22;;
24685;SDS011;12804;51.176;4.452;2022-08-01T04:27:15;6.57;;;4.80;;
24685;SDS011;12804;51.176;4.452;2022-08-01T04:29:47;7.40;;;4.88;;
24685;SDS011;12804;51.176;4.452;2022-08-01T04:32:15;9.75;;;5.40;;
24685;SDS011;12804;51.176;4.452;2022-08-01T04:34:44;7.45;;;4.75;;
24685;SDS011;12804;51.176;4.452;2022-08-01T04:37:11;6.25;;;4.50;;
24685;SDS011;12804;51.176;4.452;2022-08-01T04:39:41;11.98;;;5.00;;
24685;SDS011;12804;51.176;4.452;2022-08-01T04:42:08;6.32;;;4.40;;
24685;SDS011;12804;51.176;4.452;2022-08-01T04:44:35;5.90;;;4.40;;
24685;SDS011;12804;51.176;4.452;2022-08-01T04:47:02;7.80;;;3.88;;
24685;SDS011;12804;51.176;4.452;2022-08-01T04:49:34;5.93;;;4.00;;
24685;SDS011;12804;51.176;4.452;2022-08-01T04:52:00;5.25;;;3.80;;
24685;SDS011;12804;51.176;4.452;2022-08-01T04:54:27;7.60;;;4.70;;
24685;SDS011;12804;51.176;4.452;2022-08-01T04:56:53;7.15;;;3.67;;
24685;SDS011;12804;51.176;4.452;2022-08-01T04:59:28;5.80;;;3.30;;
24685;SDS011;12804;51.176;4.452;2022-08-01T05:02:11;5.53;;;3.15;;
24685;SDS011;12804;51.176;4.452;2022-08-01T05:04:44;4.60;;;3.30;;
24685;SDS011;12804;51.176;4.452;2022-08-01T05:07:10;4.25;;;3.03;;
24685;SDS011;12804;51.176;4.452;2022-08-01T05:09:38;3.13;;;2.83;;
24685;SDS011;12804;51.176;4.452;2022-08-01T05:12:08;4.18;;;2.90;;
24685;SDS011;12804;51.176;4.452;2022-08-01T05:14:36;5.35;;;3.20;;
24685;SDS011;12804;51.176;4.452;2022-08-01T05:17:03;3.80;;;2.58;;
24685;SDS011;12804;51.176;4.452;2022-08-01T05:19:31;4.07;;;2.75;;
24685;SDS011;12804;51.176;4.452;2022-08-01T05:21:58;3.65;;;2.72;;
24685;SDS011;12804;51.176;4.452;2022-08-01T05:24:28;2.67;;;1.88;;
24685;SDS011;12804;51.176;4.452;2022-08-01T05:26:58;2.78;;;1.67;;
24685;SDS011;12804;51.176;4.452;2022-08-01T05:29:24;2.45;;;1.20;;
24685;SDS011;12804;51.176;4.452;2022-08-01T05:31:51;1.90;;;1.27;;
24685;SDS011;12804;51.176;4.452;2022-08-01T05:34:17;2.65;;;1.30;;
24685;SDS011;12804;51.176;4.452;2022-08-01T05:36:43;5.72;;;1.23;;
24685;SDS011;12804;51.176;4.452;2022-08-01T05:39:09;3.78;;;1.58;;
24685;SDS011;12804;51.176;4.452;2022-08-01T05:41:36;3.03;;;1.70;;
24685;SDS011;12804;51.176;4.452;2022-08-01T05:44:02;3.90;;;1.40;;
24685;SDS011;12804;51.176;4.452;2022-08-01T05:46:29;3.15;;;1.50;;
24685;SDS011;12804;51.176;4.452;2022-08-01T05:48:56;2.47;;;1.38;;
24685;SDS011;12804;51.176;4.452;2022-08-01T05:51:23;3.15;;;1.40;;
24685;SDS011;12804;51.176;4.452;2022-08-01T05:53:50;2.35;;;1.27;;
24685;SDS011;12804;51.176;4.452;2022-08-01T05:56:16;1.80;;;1.30;;
24685;SDS011;12804;51.176;4.452;2022-08-01T05:58:41;2.88;;;1.80;;
24685;SDS011;12804;51.176;4.452;2022-08-01T06:01:07;2.70;;;1.77;;
24685;SDS011;12804;51.176;4.452;2022-08-01T06:03:33;1.95;;;1.55;;
24685;SDS011;12804;51.176;4.452;2022-08-01T06:05:59;5.15;;;1.95;;
24685;SDS011;12804;51.176;4.452;2022-08-01T06:08:27;6.80;;;2.30;;
24685;SDS011;12804;51.176;4.452;2022-08-01T06:10:52;2.72;;;1.80;;
24685;SDS011;12804;51.176;4.452;2022-08-01T06:13:18;1.92;;;1.67;;
24685;SDS011;12804;51.176;4.452;2022-08-01T06:15:45;2.45;;;1.67;;
24685;SDS011;12804;51.176;4.452;2022-08-01T06:18:11;2.30;;;1.40;;
24685;SDS011;12804;51.176;4.452;2022-08-01T06:20:37;3.20;;;1.60;;
24685;SDS011;12804;51.176;4.452;2022-08-01T06:23:03;2.42;;;1.33;;
24685;SDS011;12804;51.176;4.452;2022-08-01T06:25:29;1.60;;;1.15;;
24685;SDS011;12804;51.176;4.452;2022-08-01T06:27:55;1.65;;;1.10;;
24685;SDS011;12804;51.176;4.452;2022-08-01T06:30:21;1.77;;;0.93;;
24685;SDS011;12804;51.176;4.452;2022-08-01T06:32:47;1.88;;;1.00;;
24685;SDS011;12804;51.176;4.452;2022-08-01T06:35:13;2.95;;;0.95;;
24685;SDS011;12804;51.176;4.452;2022-08-01T06:37:39;2.90;;;0.80;;
24685;SDS011;12804;51.176;4.452;2022-08-01T06:40:06;1.48;;;0.90;;
24685;SDS011;12804;51.176;4.452;2022-08-01T06:42:34;1.17;;;0.77;;
24685;SDS011;12804;51.176;4.452;2022-08-01T06:45:04;1.60;;;0.90;;
24685;SDS011;12804;51.176;4.452;2022-08-01T06:47:31;1.50;;;0.80;;
24685;SDS011;12804;51.176;4.452;2022-08-01T06:49:57;1.35;;;0.80;;
24685;SDS011;12804;51.176;4.452;2022-08-01T06:52:23;2.10;;;0.90;;
24685;SDS011;12804;51.176;4.452;2022-08-01T06:54:49;1.27;;;0.80;;
24685;SDS011;12804;51.176;4.452;2022-08-01T06:57:15;1.98;;;0.70;;
24685;SDS011;12804;51.176;4.452;2022-08-01T06:59:41;2.53;;;0.90;;
24685;SDS011;12804;51.176;4.452;2022-08-01T07:02:07;1.20;;;0.70;;
24685;SDS011;12804;51.176;4.452;2022-08-01T07:04:33;1.23;;;0.70;;
24685;SDS011;12804;51.176;4.452;2022-08-01T07:06:59;4.18;;;0.75;;
24685;SDS011;12804;51.176;4.452;2022-08-01T07:09:25;1.00;;;0.60;;
24685;SDS011;12804;51.176;4.452;2022-08-01T07:11:52;2.22;;;0.57;;
24685;SDS011;12804;51.176;4.452;2022-08-01T07:14:19;0.88;;;0.40;;
24685;SDS011;12804;51.176;4.452;2022-08-01T07:16:46;2.63;;;0.60;;
24685;SDS011;12804;51.176;4.452;2022-08-01T07:19:12;4.63;;;0.90;;
24685;SDS011;12804;51.176;4.452;2022-08-01T07:21:39;2.17;;;0.60;;
24685;SDS011;12804;51.176;4.452;2022-08-01T07:24:08;1.27;;;0.45;;
24685;SDS011;12804;51.176;4.452;2022-08-01T07:26:36;2.03;;;0.70;;
24685;SDS011;12804;51.176;4.452;2022-08-01T07:29:01;1.60;;;0.75;;
24685;SDS011;12804;51.176;4.452;2022-08-01T07:31:28;1.65;;;0.50;;
24685;SDS011;12804;51.176;4.452;2022-08-01T07:33:54;1.27;;;0.70;;
24685;SDS011;12804;51.176;4.452;2022-08-01T07:36:19;2.85;;;0.90;;
24685;SDS011;12804;51.176;4.452;2022-08-01T07:38:45;1.42;;;0.85;;
24685;SDS011;12804;51.176;4.452;2022-08-01T07:41:12;3.60;;;1.15;;
24685;SDS011;12804;51.176;4.452;2022-08-01T07:43:38;3.38;;;0.82;;
24685;SDS011;12804;51.176;4.452;2022-08-01T07:46:04;2.92;;;1.00;;
24685;SDS011;12804;51.176;4.452;2022-08-01T07:48:31;4.25;;;1.00;;
24685;SDS011;12804;51.176;4.452;2022-08-01T07:50:57;1.52;;;0.75;;
24685;SDS011;12804;51.176;4.452;2022-08-01T07:53:23;1.52;;;0.80;;
24685;SDS011;12804;51.176;4.452;2022-08-01T07:55:48;2.33;;;0.73;;
24685;SDS011;12804;51.176;4.452;2022-08-01T07:58:15;1.02;;;0.85;;
24685;SDS011;12804;51.176;4.452;2022-08-01T08:00:41;2.45;;;1.40;;
24685;SDS011;12804;51.176;4.452;2022-08-01T08:03:07;3.97;;;1.50;;
24685;SDS011;12804;51.176;4.452;2022-08-01T08:05:33;2.08;;;1.30;;
24685;SDS011;12804;51.176;4.452;2022-08-01T08:08:09;2.35;;;1.40;;
24685;SDS011;12804;51.176;4.452;2022-08-01T08:10:39;1.13;;;0.80;;
24685;SDS011;12804;51.176;4.452;2022-08-01T08:13:04;2.30;;;0.80;;
24685;SDS011;12804;51.176;4.452;2022-08-01T08:15:30;5.65;;;0.80;;
24685;SDS011;12804;51.176;4.452;2022-08-01T08:17:56;2.97;;;0.70;;
24685;SDS011;12804;51.176;4.452;2022-08-01T08:20:22;2.13;;;0.90;;
24685;SDS011;12804;51.176;4.452;2022-08-01T08:22:50;2.13;;;0.80;;
24685;SDS011;12804;51.176;4.452;2022-08-01T08:25:16;1.33;;;0.75;;
24685;SDS011;12804;51.176;4.452;2022-08-01T08:27:44;6.07;;;1.10;;
24685;SDS011;12804;51.176;4.452;2022-08-01T08:30:11;3.50;;;1.00;;
24685;SDS011;12804;51.176;4.452;2022-08-01T08:32:38;2.40;;;0.80;;
24685;SDS011;12804;51.176;4.452;2022-08-01T08:35:04;3.17;;;0.80;;
24685;SDS011;12804;51.176;4.452;2022-08-01T08:37:31;2.10;;;0.93;;
24685;SDS011;12804;51.176;4.452;2022-08-01T08:39:58;4.18;;;0.93;;
24685;SDS011;12804;51.176;4.452;2022-08-01T08:42:24;2.33;;;1.00;;
24685;SDS011;12804;51.176;4.452;2022-08-01T08:44:50;2.53;;;1.30;;
24685;SDS011;12804;51.176;4.452;2022-08-01T08:47:16;3.72;;;1.02;;
24685;SDS011;12804;51.176;4.452;2022-08-01T08:49:44;4.78;;;1.50;;
24685;SDS011;12804;51.176;4.452;2022-08-01T08:52:10;1.88;;;1.40;;
24685;SDS011;12804;51.176;4.452;2022-08-01T08:54:38;3.58;;;1.50;;
24685;SDS011;12804;51.176;4.452;2022-08-01T08:57:06;4.72;;;1.92;;
24685;SDS011;12804;51.176;4.452;2022-08-01T08:59:32;4.13;;;1.70;;
24685;SDS011;12804;51.176;4.452;2022-08-01T09:01:58;3.92;;;2.08;;
24685;SDS011;12804;51.176;4.452;2022-08-01T09:04:25;4.68;;;1.67;;
24685;SDS011;12804;51.176;4.452;2022-08-01T09:06:51;4.53;;;1.70;;
24685;SDS011;12804;51.176;4.452;2022-08-01T09:09:17;5.88;;;1.40;;
24685;SDS011;12804;51.176;4.452;2022-08-01T09:11:43;5.35;;;1.80;;
24685;SDS011;12804;51.176;4.452;2022-08-01T09:14:14;3.65;;;1.50;;
24685;SDS011;12804;51.176;4.452;2022-08-01T09:16:47;6.38;;;1.88;;
24685;SDS011;12804;51.176;4.452;2022-08-01T09:19:23;5.35;;;1.60;;
24685;SDS011;12804;51.176;4.452;2022-08-01T09:21:56;4.40;;;2.10;;
24685;SDS011;12804;51.176;4.452;2022-08-01T09:24:24;4.32;;;2.38;;
24685;SDS011;12804;51.176;4.452;2022-08-01T09:26:51;5.63;;;2.28;;
24685;SDS011;12804;51.176;4.452;2022-08-01T09:29:22;5.82;;;1.85;;
24685;SDS011;12804;51.176;4.452;2022-08-01T09:31:50;3.70;;;1.70;;
24685;SDS011;12804;51.176;4.452;2022-08-01T09:34:23;4.63;;;2.08;;
24685;SDS011;12804;51.176;4.452;2022-08-01T09:37:02;3.92;;;1.70;;
24685;SDS011;12804;51.176;4.452;2022-08-01T09:39:32;2.78;;;1.63;;
24685;SDS011;12804;51.176;4.452;2022-08-01T09:42:17;4.53;;;2.00;;
24685;SDS011;12804;51.176;4.452;2022-08-01T09:44:45;3.05;;;1.48;;
24685;SDS011;12804;51.176;4.452;2022-08-01T09:47:12;4.88;;;1.70;;
24685;SDS011;12804;51.176;4.452;2022-08-01T09:49:39;2.70;;;1.45;;
24685;SDS011;12804;51.176;4.452;2022-08-01T09:52:25;4.90;;;1.63;;
24685;SDS011;12804;51.176;4.452;2022-08-01T09:57:23;3.58;;;1.20;;
24685;SDS011;12804;51.176;4.452;2022-08-01T09:59:50;3.35;;;1.08;;
24685;SDS011;12804;51.176;4.452;2022-08-01T10:04:59;5.40;;;1.80;;
24685;SDS011;12804;51.176;4.452;2022-08-01T10:07:27;3.67;;;1.50;;
24685;SDS011;12804;51.176;4.452;2022-08-01T10:09:52;3.80;;;1.60;;
24685;SDS011;12804;51.176;4.452;2022-08-01T10:12:19;3.38;;;1.45;;
24685;SDS011;12804;51.176;4.452;2022-08-01T10:14:47;2.35;;;1.80;;
24685;SDS011;12804;51.176;4.452;2022-08-01T10:17:20;2.28;;;1.48;;
24685;SDS011;12804;51.176;4.452;2022-08-01T10:19:50;4.72;;;2.25;;
24685;SDS011;12804;51.176;4.452;2022-08-01T10:22:19;5.00;;;2.00;;
24685;SDS011;12804;51.176;4.452;2022-08-01T10:24:49;4.63;;;2.08;;
24685;SDS011;12804;51.176;4.452;2022-08-01T10:27:18;3.90;;;2.03;;
24685;SDS011;12804;51.176;4.452;2022-08-01T10:29:58;3.25;;;1.98;;
24685;SDS011;12804;51.176;4.452;2022-08-01T10:32:33;3.65;;;1.70;;
24685;SDS011;12804;51.176;4.452;2022-08-01T10:35:00;4.25;;;1.90;;
24685;SDS011;12804;51.176;4.452;2022-08-01T10:37:26;4.25;;;1.80;;
24685;SDS011;12804;51.176;4.452;2022-08-01T10:39:53;5.32;;;1.80;;
24685;SDS011;12804;51.176;4.452;2022-08-01T10:42:19;2.90;;;1.73;;
24685;SDS011;12804;51.176;4.452;2022-08-01T10:44:45;3.83;;;1.77;;
24685;SDS011;12804;51.176;4.452;2022-08-01T10:47:13;5.13;;;2.05;;
24685;SDS011;12804;51.176;4.452;2022-08-01T10:49:53;3.83;;;1.90;;
24685;SDS011;12804;51.176;4.452;2022-08-01T10:52:29;3.15;;;2.60;;
24685;SDS011;12804;51.176;4.452;2022-08-01T10:55:14;2.38;;;2.08;;
24685;SDS011;12804;51.176;4.452;2022-08-01T10:57:47;3.00;;;1.88;;
24685;SDS011;12804;51.176;4.452;2022-08-01T11:00:19;6.68;;;2.60;;
24685;SDS011;12804;51.176;4.452;2022-08-01T11:02:56;3.25;;;2.10;;
24685;SDS011;12804;51.176;4.452;2022-08-01T11:05:25;3.58;;;1.63;;
24685;SDS011;12804;51.176;4.452;2022-08-01T11:07:55;4.65;;;1.90;;
24685;SDS011;12804;51.176;4.452;2022-08-01T11:10:39;3.88;;;1.58;;
24685;SDS011;12804;51.176;4.452;2022-08-01T11:13:08;3.70;;;1.60;;
24685;SDS011;12804;51.176;4.452;2022-08-01T11:15:36;3.92;;;1.40;;
24685;SDS011;12804;51.176;4.452;2022-08-01T11:18:04;3.40;;;1.30;;
24685;SDS011;12804;51.176;4.452;2022-08-01T11:20:55;3.45;;;1.33;;
24685;SDS011;12804;51.176;4.452;2022-08-01T11:23:23;2.20;;;1.30;;
24685;SDS011;12804;51.176;4.452;2022-08-01T11:28:21;2.85;;;1.25;;
24685;SDS011;12804;51.176;4.452;2022-08-01T11:30:53;5.97;;;1.35;;
24685;SDS011;12804;51.176;4.452;2022-08-01T11:44:02;3.03;;;1.15;;
24685;SDS011;12804;51.176;4.452;2022-08-01T11:49:22;1.63;;;0.80;;
24685;SDS011;12804;51.176;4.452;2022-08-01T11:51:57;3.75;;;1.35;;
24685;SDS011;12804;51.176;4.452;2022-08-01T11:54:24;2.30;;;1.17;;
24685;SDS011;12804;51.176;4.452;2022-08-01T11:56:55;3.78;;;1.48;;
24685;SDS011;12804;51.176;4.452;2022-08-01T11:59:25;6.30;;;2.10;;
24685;SDS011;12804;51.176;4.452;2022-08-01T12:01:52;3.88;;;2.10;;
24685;SDS011;12804;51.176;4.452;2022-08-01T12:04:18;4.32;;;2.65;;
24685;SDS011;12804;51.176;4.452;2022-08-01T12:06:44;5.53;;;2.72;;
24685;SDS011;12804;51.176;4.452;2022-08-01T12:09:17;3.38;;;2.35;;
24685;SDS011;12804;51.176;4.452;2022-08-01T12:11:45;3.78;;;2.00;;
24685;SDS011;12804;51.176;4.452;2022-08-01T12:14:20;4.47;;;1.80;;
24685;SDS011;12804;51.176;4.452;2022-08-01T12:16:53;5.97;;;1.88;;
24685;SDS011;12804;51.176;4.452;2022-08-01T12:19:20;9.73;;;2.33;;
24685;SDS011;12804;51.176;4.452;2022-08-01T12:24:35;3.03;;;1.60;;
24685;SDS011;12804;51.176;4.452;2022-08-01T12:27:03;4.90;;;1.83;;
24685;SDS011;12804;51.176;4.452;2022-08-01T12:29:30;2.40;;;1.30;;
24685;SDS011;12804;51.176;4.452;2022-08-01T12:31:57;4.03;;;1.70;;
24685;SDS011;12804;51.176;4.452;2022-08-01T12:34:27;2.72;;;1.20;;
24685;SDS011;12804;51.176;4.452;2022-08-01T12:36:56;4.65;;;1.33;;
24685;SDS011;12804;51.176;4.452;2022-08-01T12:39:42;3.67;;;1.38;;
24685;SDS011;12804;51.176;4.452;2022-08-01T12:42:09;3.25;;;1.02;;
24685;SDS011;12804;51.176;4.452;2022-08-01T12:44:36;2.88;;;0.93;;
24685;SDS011;12804;51.176;4.452;2022-08-01T12:47:04;4.60;;;1.23;;
24685;SDS011;12804;51.176;4.452;2022-08-01T12:49:32;2.40;;;1.00;;
24685;SDS011;12804;51.176;4.452;2022-08-01T12:52:00;5.15;;;1.90;;
24685;SDS011;12804;51.176;4.452;2022-08-01T12:54:26;6.32;;;1.17;;
24685;SDS011;12804;51.176;4.452;2022-08-01T12:56:52;5.40;;;1.40;;
24685;SDS011;12804;51.176;4.452;2022-08-01T12:59:25;3.05;;;1.55;;
24685;SDS011;12804;51.176;4.452;2022-08-01T13:01:54;4.07;;;1.45;;
24685;SDS011;12804;51.176;4.452;2022-08-01T13:04:21;4.10;;;1.02;;
24685;SDS011;12804;51.176;4.452;2022-08-01T13:06:48;2.90;;;1.33;;
24685;SDS011;12804;51.176;4.452;2022-08-01T13:09:18;2.45;;;1.15;;
24685;SDS011;12804;51.176;4.452;2022-08-01T13:11:44;4.60;;;1.15;;
24685;SDS011;12804;51.176;4.452;2022-08-01T13:14:26;1.70;;;0.73;;
24685;SDS011;12804;51.176;4.452;2022-08-01T13:16:53;3.03;;;1.00;;
24685;SDS011;12804;51.176;4.452;2022-08-01T13:19:18;1.70;;;0.80;;
24685;SDS011;12804;51.176;4.452;2022-08-01T13:21:54;3.30;;;0.95;;
24685;SDS011;12804;51.176;4.452;2022-08-01T13:24:25;1.58;;;0.93;;
24685;SDS011;12804;51.176;4.452;2022-08-01T13:29:36;4.32;;;0.90;;
24685;SDS011;12804;51.176;4.452;2022-08-01T13:32:19;2.10;;;0.90;;
24685;SDS011;12804;51.176;4.452;2022-08-01T13:34:46;3.85;;;0.90;;
24685;SDS011;12804;51.176;4.452;2022-08-01T13:37:12;3.28;;;1.00;;
24685;SDS011;12804;51.176;4.452;2022-08-01T13:39:37;2.25;;;1.00;;
24685;SDS011;12804;51.176;4.452;2022-08-01T13:42:14;1.42;;;0.90;;
24685;SDS011;12804;51.176;4.452;2022-08-01T13:44:41;4.45;;;0.90;;
24685;SDS011;12804;51.176;4.452;2022-08-01T13:47:10;3.95;;;1.00;;
24685;SDS011;12804;51.176;4.452;2022-08-01T13:49:36;2.95;;;0.93;;
24685;SDS011;12804;51.176;4.452;2022-08-01T13:52:02;2.15;;;1.15;;
24685;SDS011;12804;51.176;4.452;2022-08-01T13:54:31;3.55;;;1.10;;
24685;SDS011;12804;51.176;4.452;2022-08-01T13:56:57;3.38;;;1.00;;
24685;SDS011;12804;51.176;4.452;2022-08-01T13:59:23;3.40;;;1.25;;
24685;SDS011;12804;51.176;4.452;2022-08-01T14:01:48;4.03;;;0.93;;
24685;SDS011;12804;51.176;4.452;2022-08-01T14:04:14;3.42;;;1.52;;
24685;SDS011;12804;51.176;4.452;2022-08-01T14:06:40;2.85;;;1.00;;
24685;SDS011;12804;51.176;4.452;2022-08-01T14:09:06;4.40;;;0.90;;
24685;SDS011;12804;51.176;4.452;2022-08-01T14:11:32;5.78;;;1.02;;
24685;SDS011;12804;51.176;4.452;2022-08-01T14:13:58;1.73;;;0.98;;
24685;SDS011;12804;51.176;4.452;2022-08-01T14:16:24;3.83;;;1.25;;
24685;SDS011;12804;51.176;4.452;2022-08-01T14:18:50;2.90;;;0.90;;
24685;SDS011;12804;51.176;4.452;2022-08-01T14:21:16;2.13;;;1.05;;
24685;SDS011;12804;51.176;4.452;2022-08-01T14:23:42;1.48;;;0.80;;
24685;SDS011;12804;51.176;4.452;2022-08-01T14:26:08;3.35;;;1.00;;
24685;SDS011;12804;51.176;4.452;2022-08-01T14:28:35;4.20;;;1.25;;
24685;SDS011;12804;51.176;4.452;2022-08-01T14:31:01;3.78;;;0.90;;
24685;SDS011;12804;51.176;4.452;2022-08-01T14:33:27;3.50;;;0.80;;
24685;SDS011;12804;51.176;4.452;2022-08-01T14:35:54;4.43;;;0.93;;
24685;SDS011;12804;51.176;4.452;2022-08-01T14:38:20;2.60;;;0.90;;
24685;SDS011;12804;51.176;4.452;2022-08-01T14:40:45;2.00;;;1.00;;
24685;SDS011;12804;51.176;4.452;2022-08-01T14:43:16;5.00;;;0.95;;
24685;SDS011;12804;51.176;4.452;2022-08-01T14:45:43;3.05;;;1.00;;
24685;SDS011;12804;51.176;4.452;2022-08-01T14:48:09;1.52;;;0.90;;
24685;SDS011;12804;51.176;4.452;2022-08-01T14:50:34;1.80;;;0.85;;
24685;SDS011;12804;51.176;4.452;2022-08-01T14:53:01;3.70;;;1.10;;
24685;SDS011;12804;51.176;4.452;2022-08-01T14:55:26;1.88;;;1.02;;
24685;SDS011;12804;51.176;4.452;2022-08-01T14:57:53;2.90;;;1.00;;
24685;SDS011;12804;51.176;4.452;2022-08-01T15:00:18;2.88;;;1.15;;
24685;SDS011;12804;51.176;4.452;2022-08-01T15:02:45;2.15;;;0.90;;
24685;SDS011;12804;51.176;4.452;2022-08-01T15:05:11;2.90;;;0.80;;
24685;SDS011;12804;51.176;4.452;2022-08-01T15:07:37;1.50;;;0.70;;
24685;SDS011;12804;51.176;4.452;2022-08-01T15:10:06;1.85;;;0.60;;
24685;SDS011;12804;51.176;4.452;2022-08-01T15:12:32;2.05;;;0.70;;
24685;SDS011;12804;51.176;4.452;2022-08-01T15:14:59;1.20;;;0.60;;
24685;SDS011;12804;51.176;4.452;2022-08-01T15:17:26;1.67;;;0.80;;
24685;SDS011;12804;51.176;4.452;2022-08-01T15:19:58;2.40;;;1.15;;
24685;SDS011;12804;51.176;4.452;2022-08-01T15:22:25;1.65;;;0.80;;
24685;SDS011;12804;51.176;4.452;2022-08-01T15:24:53;2.47;;;1.30;;